createdAt,value
2019-03-12T00:01:25.639Z,96882.31
2019-03-12T00:04:13.571Z,96881.88
2019-03-12T00:07:01.204Z,96884.85
2019-03-12T00:09:49.174Z,96892.03
2019-03-12T00:12:37.415Z,96887.48
2019-03-12T00:15:29.478Z,96893.03
2019-03-12T00:18:17.211Z,96896.73
2019-03-12T00:21:05.217Z,96900.85
2019-03-12T00:23:53.479Z,96906.17
2019-03-12T00:26:41.304Z,96910.84
2019-03-12T00:29:28.928Z,96917.34
2019-03-12T00:32:17.514Z,96918.30
2019-03-12T00:35:05.839Z,96918.56
2019-03-12T00:37:57.218Z,96917.39
2019-03-12T00:40:45.019Z,96925.84
2019-03-12T00:43:32.854Z,96927.02
2019-03-12T00:46:21.001Z,96928.34
2019-03-12T00:49:08.483Z,96926.75
2019-03-12T00:51:56.430Z,96928.01
2019-03-12T00:54:44.400Z,96927.89
2019-03-12T00:57:32.263Z,96927.38
2019-03-12T01:00:21.283Z,96929.23
2019-03-12T01:03:09.199Z,96927.55
2019-03-12T01:05:57.021Z,96933.53
2019-03-12T01:08:44.734Z,96935.95
2019-03-12T01:11:35.829Z,96941.27
2019-03-12T01:14:23.294Z,96938.79
2019-03-12T01:17:11.646Z,96943.13
2019-03-12T01:20:06.444Z,96938.23
2019-03-12T01:22:54.809Z,96933.98
2019-03-12T01:25:42.600Z,96937.72
2019-03-12T01:28:30.735Z,96943.70
2019-03-12T01:31:18.769Z,96949.52
2019-03-12T01:34:07.442Z,96946.39
2019-03-12T01:36:55.652Z,96947.25
2019-03-12T01:39:49.572Z,96945.71
2019-03-12T01:42:37.205Z,96949.77
2019-03-12T01:45:25.336Z,96950.32
2019-03-12T01:48:13.646Z,96949.77
2019-03-12T01:51:01.589Z,96951.34
2019-03-12T01:53:49.482Z,96948.38
2019-03-12T01:56:37.352Z,96939.98
2019-03-12T01:59:25.529Z,96941.70
2019-03-12T02:02:13.425Z,96942.52
2019-03-12T02:05:07.495Z,96939.45
2019-03-12T02:07:56.392Z,96942.09
2019-03-12T02:10:44.170Z,96946.89
2019-03-12T02:13:32.000Z,96943.31
2019-03-12T02:16:19.963Z,96940.69
2019-03-12T02:19:07.781Z,96942.59
2019-03-12T02:21:56.195Z,96951.55
2019-03-12T02:24:52.517Z,96937.45
2019-03-12T02:27:34.218Z,96942.09
2019-03-12T02:30:22.605Z,96940.75
2019-03-12T02:33:10.359Z,96939.22
2019-03-12T02:35:57.827Z,96935.92
2019-03-12T02:38:45.766Z,96938.73
2019-03-12T02:41:33.451Z,96940.75
2019-03-12T02:44:20.935Z,96939.02
2019-03-12T02:47:12.769Z,96939.64
2019-03-12T02:50:01.171Z,96940.56
2019-03-12T02:52:49.845Z,96945.85
2019-03-12T02:55:38.115Z,96947.27
2019-03-12T02:58:28.494Z,96945.00
2019-03-12T03:01:16.477Z,96936.31
2019-03-12T03:04:04.970Z,96942.73
2019-03-12T03:07:14.611Z,96936.25
2019-03-12T03:10:02.507Z,96943.22
2019-03-12T03:12:50.626Z,96928.86
2019-03-12T03:15:42.039Z,96929.00
2019-03-12T03:18:29.956Z,96928.94
2019-03-12T03:21:18.222Z,96926.54
2019-03-12T03:24:06.198Z,96926.54
2019-03-12T03:26:54.523Z,96924.25
2019-03-12T03:29:45.284Z,96920.24
2019-03-12T03:32:36.206Z,96923.79
2019-03-12T03:35:23.833Z,96922.78
2019-03-12T03:38:11.636Z,96921.27
2019-03-12T03:40:59.360Z,96920.63
2019-03-12T03:43:47.209Z,96920.55
2019-03-12T03:46:35.080Z,96911.62
2019-03-12T03:49:23.936Z,96913.80
2019-03-12T03:52:11.779Z,96908.30
2019-03-12T03:54:59.909Z,96904.66
2019-03-12T03:57:47.831Z,96901.25
2019-03-12T04:00:35.708Z,96913.66
2019-03-12T04:03:23.797Z,96910.34
2019-03-12T04:06:11.888Z,96905.89
2019-03-12T04:08:59.980Z,96895.86
2019-03-12T04:11:47.572Z,96891.06
2019-03-12T04:14:36.408Z,96891.45
2019-03-12T04:17:24.429Z,96888.96
2019-03-12T04:20:12.665Z,96892.91
2019-03-12T04:23:00.118Z,96893.64
2019-03-12T04:25:49.474Z,96885.88
2019-03-12T04:28:40.327Z,96889.03
2019-03-12T04:31:29.004Z,96884.58
2019-03-12T04:34:19.423Z,96886.35
2019-03-12T04:37:17.073Z,96885.91
2019-03-12T04:40:07.329Z,96876.52
2019-03-12T04:42:55.320Z,96881.05
2019-03-12T04:45:43.030Z,96883.10
2019-03-12T04:48:30.745Z,96871.30
2019-03-12T04:51:21.619Z,96871.30
2019-03-12T04:54:09.681Z,96875.15
2019-03-12T04:56:57.110Z,96869.27
2019-03-12T04:59:45.354Z,96860.80
2019-03-12T05:02:33.266Z,96854.95
2019-03-12T05:05:20.984Z,96856.89
2019-03-12T05:08:08.694Z,96842.80
2019-03-12T05:11:04.224Z,96837.20
2019-03-12T05:14:23.832Z,96826.47
2019-03-12T05:17:19.993Z,96821.45
2019-03-12T05:20:10.688Z,96820.38
2019-03-12T05:22:58.475Z,96819.59
2019-03-12T05:25:47.881Z,96814.59
2019-03-12T05:28:35.969Z,96808.01
2019-03-12T05:31:25.812Z,96809.28
2019-03-12T05:34:13.814Z,96808.55
2019-03-12T05:37:01.507Z,96797.92
2019-03-12T05:39:49.227Z,96800.88
2019-03-12T05:42:36.706Z,96795.16
2019-03-12T05:45:24.963Z,96795.77
2019-03-12T05:48:12.776Z,96795.83
2019-03-12T05:51:00.460Z,96790.45
2019-03-12T05:53:49.576Z,96792.63
2019-03-12T05:56:38.435Z,96796.53
2019-03-12T05:59:26.367Z,96791.73
2019-03-12T06:02:14.989Z,96791.75
2019-03-12T06:06:16.794Z,96787.28
2019-03-12T06:08:56.386Z,96783.81
2019-03-12T06:11:55.328Z,96789.22
2019-03-12T06:14:42.980Z,96784.82
2019-03-12T06:17:30.603Z,96777.58
2019-03-12T06:20:36.324Z,96777.89
2019-03-12T06:23:35.497Z,96769.00
2019-03-12T06:26:50.453Z,96766.85
2019-03-12T06:29:40.566Z,96761.33
2019-03-12T06:32:49.886Z,96752.77
2019-03-12T06:36:13.626Z,96762.07
2019-03-12T06:39:15.751Z,96762.47
2019-03-12T06:42:16.199Z,96757.53
2019-03-12T06:45:13.644Z,96751.92
2019-03-12T06:48:28.557Z,96741.81
2019-03-12T06:51:38.397Z,96739.10
2019-03-12T06:54:45.359Z,96735.42
2019-03-12T06:58:28.984Z,96738.06
2019-03-12T07:01:36.324Z,96728.02
2019-03-12T07:04:37.060Z,96731.00
2019-03-12T07:10:37.476Z,96728.58
2019-03-12T07:13:34.105Z,96719.75
2019-03-12T07:16:39.063Z,96723.91
2019-03-12T07:19:51.626Z,96718.66
2019-03-12T07:23:07.803Z,96718.38
2019-03-12T07:26:05.340Z,96707.27
2019-03-12T07:32:38.599Z,96709.77
2019-03-12T07:35:50.164Z,96705.83
2019-03-12T07:38:52.458Z,96697.41
2019-03-12T07:41:56.487Z,96693.47
2019-03-12T07:45:03.489Z,96690.63
2019-03-12T07:48:28.138Z,96696.17
2019-03-12T07:51:33.392Z,96682.33
2019-03-12T07:55:38.245Z,96695.28
2019-03-12T07:58:36.011Z,96686.98
2019-03-12T08:01:33.238Z,96674.66
2019-03-12T08:04:54.299Z,96675.36
2019-03-12T08:08:04.226Z,96666.09
2019-03-12T08:11:03.314Z,96657.70
2019-03-12T08:14:10.502Z,96654.25
2019-03-12T08:17:08.403Z,96641.66
2019-03-12T08:20:21.018Z,96642.38
2019-03-12T08:23:19.995Z,96636.31
2019-03-12T08:26:15.581Z,96629.56
2019-03-12T08:29:28.312Z,96624.80
2019-03-12T08:32:27.112Z,96623.16
2019-03-12T08:35:32.661Z,96620.63
2019-03-12T08:38:37.927Z,96614.75
2019-03-12T08:41:36.812Z,96603.46
2019-03-12T08:44:41.284Z,96597.94
2019-03-12T08:47:41.378Z,96591.63
2019-03-12T08:51:06.313Z,96590.27
2019-03-12T08:54:09.790Z,96580.96
2019-03-12T08:57:22.187Z,96573.38
2019-03-12T09:00:19.860Z,96572.39
2019-03-12T09:03:47.922Z,96578.36
2019-03-12T09:06:48.876Z,96571.34
2019-03-12T09:09:49.726Z,96559.44
2019-03-12T09:12:48.018Z,96560.39
2019-03-12T09:15:53.462Z,96559.49
2019-03-12T09:19:03.547Z,96560.47
2019-03-12T09:22:16.299Z,96557.33
2019-03-12T09:25:22.048Z,96541.95
2019-03-12T09:28:34.829Z,96544.40
2019-03-12T09:31:43.589Z,96535.77
2019-03-12T09:34:48.894Z,96530.02
2019-03-12T09:37:46.781Z,96516.37
2019-03-12T09:40:44.047Z,96508.25
2019-03-12T09:43:51.554Z,96507.75
2019-03-12T09:46:51.497Z,96500.38
2019-03-12T09:49:45.037Z,96496.86
2019-03-12T09:52:44.991Z,96496.63
2019-03-12T09:55:42.248Z,96492.63
2019-03-12T09:58:42.488Z,96484.43
2019-03-12T10:01:41.945Z,96476.12
2019-03-12T10:04:48.845Z,96466.42
2019-03-12T10:07:50.142Z,96450.94
2019-03-12T10:10:57.132Z,96442.00
2019-03-12T10:13:57.483Z,96431.33
2019-03-12T10:17:07.541Z,96427.13
2019-03-12T10:20:16.463Z,96423.61
2019-03-12T10:23:23.430Z,96424.30
2019-03-12T10:26:36.174Z,96416.27
2019-03-12T10:29:45.925Z,96410.35
2019-03-12T10:32:58.052Z,96402.70
2019-03-12T10:35:55.788Z,96402.52
2019-03-12T10:39:25.202Z,96402.80
2019-03-12T10:42:30.906Z,96398.78
2019-03-12T10:45:38.277Z,96384.80
2019-03-12T10:48:26.929Z,96387.89
2019-03-12T10:51:15.253Z,96385.77
2019-03-12T10:54:03.345Z,96379.14
2019-03-12T10:56:51.437Z,96374.33
2019-03-12T10:59:39.685Z,96368.17
2019-03-12T11:02:27.731Z,96360.22
2019-03-12T11:05:17.157Z,96347.13
2019-03-12T11:08:07.861Z,96336.95
2019-03-12T11:10:56.239Z,96334.25
2019-03-12T11:13:45.223Z,96335.80
2019-03-12T11:16:33.794Z,96339.47
2019-03-12T11:19:21.518Z,96326.87
2019-03-12T11:22:08.969Z,96323.05
2019-03-12T11:24:56.672Z,96313.33
2019-03-12T11:27:44.275Z,96311.24
2019-03-12T11:30:31.897Z,96310.65
2019-03-12T11:33:24.187Z,96302.14
2019-03-12T11:36:11.653Z,96302.13
2019-03-12T11:38:59.327Z,96289.19
2019-03-12T11:41:48.721Z,96287.61
2019-03-12T11:44:36.406Z,96287.81
2019-03-12T11:47:26.134Z,96277.26
2019-03-12T11:50:16.092Z,96273.18
2019-03-12T11:53:07.126Z,96269.73
2019-03-12T11:55:55.418Z,96264.22
2019-03-12T11:58:43.229Z,96265.12
2019-03-12T12:01:31.116Z,96248.77
2019-03-12T12:04:19.100Z,96245.01
2019-03-12T12:07:07.019Z,96236.49
2019-03-12T12:09:55.089Z,96236.65
2019-03-12T12:12:42.815Z,96222.14
2019-03-12T12:15:30.945Z,96209.81
2019-03-12T12:18:18.852Z,96203.09
2019-03-12T12:21:06.727Z,96204.45
2019-03-12T12:23:54.764Z,96197.35
2019-03-12T12:26:42.445Z,96189.31
2019-03-12T12:29:29.848Z,96173.68
2019-03-12T12:32:17.631Z,96168.56
2019-03-12T12:35:06.920Z,96169.93
2019-03-12T12:37:55.135Z,96161.63
2019-03-12T12:40:42.758Z,96162.34
2019-03-12T12:43:30.447Z,96149.67
2019-03-12T12:46:18.532Z,96144.73
2019-03-12T12:49:07.466Z,96136.08
2019-03-12T12:51:55.295Z,96123.70
2019-03-12T12:54:42.759Z,96117.22
2019-03-12T12:57:31.697Z,96113.42
2019-03-12T13:00:20.393Z,96106.25
2019-03-12T13:03:08.324Z,96106.30
2019-03-12T13:05:56.809Z,96100.41
2019-03-12T13:08:44.888Z,96092.95
2019-03-12T13:11:32.777Z,96076.96
2019-03-12T13:14:20.694Z,96075.91
2019-03-12T13:17:08.278Z,96075.37
2019-03-12T13:19:56.339Z,96071.59
2019-03-12T13:22:44.364Z,96067.61
2019-03-12T13:25:32.541Z,96058.25
2019-03-12T13:28:20.577Z,96052.61
2019-03-12T13:31:08.231Z,96041.30
2019-03-12T13:33:56.022Z,96039.28
2019-03-12T13:36:44.278Z,96044.03
2019-03-12T13:39:33.429Z,96033.56
2019-03-12T13:42:23.414Z,96026.81
2019-03-12T13:45:12.083Z,96017.66
2019-03-12T13:47:59.705Z,95996.09
2019-03-12T13:50:47.742Z,95991.86
2019-03-12T13:53:35.181Z,95985.98
2019-03-12T13:56:22.650Z,95987.83
2019-03-12T13:59:10.565Z,95980.81
2019-03-12T14:01:58.825Z,95973.31
2019-03-12T14:04:46.883Z,95971.30
2019-03-12T14:07:34.443Z,95978.28
2019-03-12T14:10:22.499Z,95974.05
2019-03-12T14:13:10.165Z,95962.83
2019-03-12T14:15:59.521Z,95961.67
2019-03-12T14:18:48.463Z,95957.39
2019-03-12T14:21:42.832Z,95941.40
2019-03-12T14:24:30.328Z,95937.16
2019-03-12T14:27:18.405Z,95932.64
2019-03-12T14:30:08.330Z,95931.49
2019-03-12T14:32:56.447Z,95921.89
2019-03-12T14:35:51.411Z,95913.44
2019-03-12T14:38:33.553Z,95909.77
2019-03-12T14:41:20.987Z,95899.98
2019-03-12T14:44:12.765Z,95895.42
2019-03-12T14:47:00.204Z,95893.44
2019-03-12T14:49:47.852Z,95875.27
2019-03-12T14:52:39.387Z,95875.22
2019-03-12T14:55:26.911Z,95866.80
2019-03-12T14:58:14.883Z,95855.08
2019-03-12T15:01:02.743Z,95851.45
2019-03-12T15:03:50.262Z,95848.44
2019-03-12T15:06:38.078Z,95849.63
2019-03-12T15:09:25.998Z,95835.34
2019-03-12T15:15:07.000Z,95818.57
2019-03-12T15:17:55.721Z,95813.80
2019-03-12T15:20:43.766Z,95799.30
2019-03-12T15:23:31.269Z,95797.06
2019-03-12T15:26:19.041Z,95783.67
2019-03-12T15:29:07.728Z,95775.62
2019-03-12T15:32:04.251Z,95768.33
2019-03-12T15:34:44.729Z,95760.66
2019-03-12T15:37:32.707Z,95756.41
2019-03-12T15:40:20.335Z,95748.00
2019-03-12T15:43:11.407Z,95746.47
2019-03-12T15:45:59.316Z,95734.89
2019-03-12T15:48:47.275Z,95733.34
2019-03-12T15:51:35.335Z,95729.48
2019-03-12T15:54:23.130Z,95726.23
2019-03-12T15:57:11.221Z,95715.09
2019-03-12T15:59:59.298Z,95711.64
2019-03-12T16:02:47.468Z,95702.56
2019-03-12T16:05:36.488Z,95694.10
2019-03-12T16:08:23.694Z,95690.64
2019-03-12T16:11:22.168Z,95683.72
2019-03-12T16:14:09.414Z,95681.25
2019-03-12T16:16:56.712Z,95677.64
2019-03-12T16:19:44.519Z,95676.09
2019-03-12T16:22:31.975Z,95668.39
2019-03-12T16:25:19.438Z,95671.80
2019-03-12T16:28:07.542Z,95660.25
2019-03-12T16:30:55.817Z,95664.33
2019-03-12T16:33:43.500Z,95653.81
2019-03-12T16:36:30.917Z,95648.80
2019-03-12T16:39:19.366Z,95650.98
2019-03-12T16:42:07.302Z,95642.06
2019-03-12T16:44:55.411Z,95632.64
2019-03-12T16:47:42.881Z,95632.25
2019-03-12T16:50:30.436Z,95625.08
2019-03-12T16:53:17.903Z,95613.73
2019-03-12T16:56:05.388Z,95609.14
2019-03-12T16:58:53.298Z,95620.89
2019-03-12T17:01:41.829Z,95622.97
2019-03-12T17:04:29.468Z,95622.40
2019-03-12T17:07:18.596Z,95607.57
2019-03-12T17:10:07.647Z,95596.76
2019-03-12T17:12:55.651Z,95593.28
2019-03-12T17:15:45.338Z,95592.97
2019-03-12T17:18:33.763Z,95595.91
2019-03-12T17:21:21.521Z,95593.11
2019-03-12T17:24:09.522Z,95590.90
2019-03-12T17:26:57.505Z,95588.13
2019-03-12T17:29:48.515Z,95585.17
2019-03-12T17:32:36.363Z,95581.52
2019-03-12T17:35:25.390Z,95589.45
2019-03-12T17:38:13.460Z,95574.27
2019-03-12T17:41:01.558Z,95578.82
2019-03-12T17:43:49.350Z,95568.32
2019-03-12T17:46:37.149Z,95567.83
2019-03-12T17:49:30.928Z,95559.75
2019-03-12T17:52:18.681Z,95563.92
2019-03-12T17:55:08.278Z,95565.75
2019-03-12T17:57:56.014Z,95570.81
2019-03-12T18:00:45.394Z,95563.05
2019-03-12T18:03:33.462Z,95555.94
2019-03-12T18:06:21.191Z,95553.58
2019-03-12T18:09:09.122Z,95544.76
2019-03-12T18:11:57.981Z,95536.05
2019-03-12T18:14:48.244Z,95529.69
2019-03-12T18:17:36.013Z,95524.21
2019-03-12T18:20:23.852Z,95526.20
2019-03-12T18:23:11.983Z,95518.95
2019-03-12T18:26:00.549Z,95515.97
2019-03-12T18:28:48.408Z,95516.29
2019-03-12T18:31:36.451Z,95514.12
2019-03-12T18:34:24.169Z,95510.28
2019-03-12T18:37:11.984Z,95503.47
2019-03-12T18:39:59.825Z,95485.13
2019-03-12T18:42:48.097Z,95481.09
2019-03-12T18:45:36.909Z,95482.03
2019-03-12T18:48:24.682Z,95483.91
2019-03-12T18:51:14.257Z,95492.41
2019-03-12T18:54:02.333Z,95484.27
2019-03-12T18:56:50.374Z,95489.42
2019-03-12T18:59:38.441Z,95488.20
2019-03-12T19:02:26.245Z,95489.42
2019-03-12T19:05:14.797Z,95478.72
2019-03-12T19:08:02.389Z,95468.55
2019-03-12T19:10:51.326Z,95449.42
2019-03-12T19:13:41.861Z,95439.80
2019-03-12T19:16:34.126Z,95432.59
2019-03-12T19:19:22.035Z,95434.98
2019-03-12T19:22:17.121Z,95425.95
2019-03-12T19:25:05.939Z,95414.77
2019-03-12T19:28:00.131Z,95407.78
2019-03-12T19:30:57.105Z,95410.41
2019-03-12T19:40:47.401Z,95380.91
2019-03-12T19:43:38.745Z,95380.98
2019-03-12T19:46:27.399Z,95381.93
2019-03-12T19:49:18.528Z,95377.11
2019-03-12T19:52:09.859Z,95374.72
2019-03-12T19:54:59.926Z,95373.24
2019-03-12T19:57:54.862Z,95378.48
2019-03-12T20:00:44.702Z,95371.34
2019-03-12T20:03:33.403Z,95354.92
2019-03-12T20:06:25.546Z,95355.45
2019-03-12T20:09:28.777Z,95353.89
2019-03-12T20:13:02.063Z,95356.69
2019-03-12T20:16:28.592Z,95357.45
2019-03-12T20:19:56.352Z,95351.88
2019-03-12T20:23:17.715Z,95341.02
2019-03-12T20:26:54.895Z,95341.27
2019-03-12T20:30:23.055Z,95348.06
2019-03-12T20:34:18.042Z,95351.80
2019-03-12T20:37:40.872Z,95358.39
2019-03-12T20:41:31.551Z,95364.14
2019-03-12T20:45:00.507Z,95364.17
2019-03-12T20:48:41.304Z,95358.05
2019-03-12T20:52:05.005Z,95349.81
2019-03-12T20:55:30.191Z,95354.88
2019-03-12T20:58:54.948Z,95338.73
2019-03-12T21:02:19.797Z,95332.56
2019-03-12T21:05:50.830Z,95338.02
2019-03-12T21:09:28.031Z,95317.94
2019-03-12T21:13:01.709Z,95317.52
2019-03-12T21:16:39.794Z,95286.78
2019-03-12T21:20:16.853Z,95289.31
2019-03-12T21:23:35.711Z,95281.22
2019-03-12T21:27:05.115Z,95278.34
2019-03-12T21:29:54.320Z,95289.92
2019-03-12T21:32:49.676Z,95286.67
2019-03-12T21:35:37.872Z,95283.64
2019-03-12T21:38:25.744Z,95292.02
2019-03-12T21:41:13.654Z,95281.94
2019-03-12T21:44:02.466Z,95262.72
2019-03-12T21:46:55.776Z,95264.00
2019-03-12T21:49:43.214Z,95273.66
2019-03-12T21:52:32.979Z,95267.92
2019-03-12T21:55:22.289Z,95265.56
2019-03-12T21:58:10.632Z,95248.62
2019-03-12T22:00:58.533Z,95247.03
2019-03-12T22:03:48.106Z,95243.81
2019-03-12T22:06:36.548Z,95251.09
2019-03-12T22:09:24.489Z,95241.21
2019-03-12T22:12:12.314Z,95237.50
2019-03-12T22:15:01.015Z,95235.30
2019-03-12T22:17:50.005Z,95231.66
2019-03-12T22:20:37.912Z,95215.19
2019-03-12T22:23:30.394Z,95210.38
2019-03-12T22:26:18.750Z,95209.20
2019-03-12T22:29:06.739Z,95192.91
2019-03-12T22:31:54.480Z,95172.84
2019-03-12T22:34:45.405Z,95162.01
2019-03-12T22:37:34.160Z,95155.92
2019-03-12T22:40:22.405Z,95136.34
2019-03-12T22:43:10.642Z,95132.27
2019-03-12T22:45:58.556Z,95137.56
2019-03-12T22:48:46.223Z,95125.63
2019-03-12T22:51:33.833Z,95098.64
2019-03-12T22:54:21.939Z,95114.86
2019-03-12T22:57:11.382Z,95116.09
2019-03-12T22:59:59.496Z,95111.16
2019-03-12T23:02:47.623Z,95104.05
2019-03-12T23:05:35.579Z,95095.14
2019-03-12T23:08:23.465Z,95083.16
2019-03-12T23:11:11.689Z,95082.97
2019-03-12T23:13:59.628Z,95071.24
2019-03-12T23:17:41.085Z,95073.82
2019-03-12T23:20:28.537Z,95068.42
2019-03-12T23:23:15.626Z,95070.95
2019-03-12T23:26:03.253Z,95062.56
2019-03-12T23:28:51.298Z,95060.84
2019-03-12T23:31:38.974Z,95062.61
2019-03-12T23:34:26.445Z,95064.85
2019-03-12T23:37:14.361Z,95064.14
2019-03-12T23:40:20.762Z,95074.70
2019-03-12T23:43:08.601Z,95076.81
2019-03-12T23:45:56.313Z,95097.67
2019-03-12T23:48:44.058Z,95100.71
2019-03-12T23:51:32.092Z,95106.70
2019-03-12T23:54:19.662Z,95123.70
2019-03-12T23:57:07.925Z,95135.91
2019-03-12T23:59:55.671Z,95169.97
